Airfield :
LOGIN :

Register | Disclaimer

   EN    FR    IT 

 










Legend :    VFR   Marginal VFR   IFR   Intensive IFR   Very Intensive IFR
Visi :
Ceiling :
>= 8 km
>= 3000ft
5 to 8 km
1000 to 3000 ft
1500m to 5 km
500 to 1000 ft
800 to 1500m
200 to 500 ft
< 800m
< 200 ft
Symbols :   Thunderstorms  Fog  Heavy snow  Heavy precipitations  Wind > 20 kt
SIGMETs :     Misc.  Thunderstorms  Icing  Turbulence  Mountain Waves  Volcanic Ashes






- Airport Elevation : 1487 ft
- IATA code : MUC


EDDM - München Franz Josef Strauss

CURRENT METAR :
  • 231320Z AUTO 01007KT 9999 OVC018 04/00 Q1014 NOSIG

EXPIRED METARs :
  • 231250Z AUTO 36006KT 320V050 9999 -DZ OVC017 03/01 Q1014 NOSIG
  • 231220Z AUTO 02007KT 340V040 9999 BKN015 03/01 Q1014 NOSIG
  • 231150Z AUTO 01006KT 340V050 9999 OVC015 03/01 Q1014 NOSIG
  • 231120Z AUTO 02006KT 350V050 9999 OVC013 03/01 Q1015 BECMG BKN015
  • 231050Z AUTO 02007KT 350V060 9999 -DZ SCT009 OVC013 03/01 Q1015 NOSIG
  • 231020Z AUTO 02007KT 350V050 9999 -DZ BKN009 OVC014 02/01 Q1015 BECMG BKN013
  • 230950Z AUTO 01008KT 340V040 9999 -DZ BKN008 BKN013 02/01 Q1015 BECMG BKN013
  • 230920Z AUTO 02007KT 9999 -SNRA BKN009 OVC016 02/01 Q1015 TEMPO BKN009
  • 230850Z AUTO 02008KT 360V060 9999 -RA BKN008 OVC013 02/01 Q1015 BECMG BKN012

TAF TAF EDDM
Valid from the 23 at 12:00 until the 24 at 18:00 UTC


231100Z 2312/2418 02007KT 9999 BKN013
BECMG 2312/2315 BKN030
BECMG 2317/2319 26006KT
BECMG 2408/2410 27011KT
TEMPO 2412/2418 26015G25KT SHRA SCT030CB
PROB30
TEMPO 2415/2418 4000 TSGS



MET'MAP, your aeronautical weather chart ! - Copyright ORBIFLY December 2007 - Disclaimer

ORBIFLY MET'MAP TEAM :

Programming & Development : Alexandra Zaïnal
Original concept : Baudouin d'Aumeries
Technical & hardware support : Manuel Goepfert
Assistance : Marc-Olivier Méhu




SOURCES & CREDITS :

   NOAA